Time;durP1;ratioP1;P1;durP2;ratioP2;P2;SDS_P1;SDS_P2;PMS_P1;PMS_P2;Temp;Humidity;BMP_temperature;BMP_pressure;BME280_temperature;BME280_humidity;BME280_pressure;Samples;Min_cycle;Max_cycle;Signal;HPM_P1;HPM_P2
2023/09/05 00:00:16;;;;;;;4.10;2.30;;;;;;;25.88;36.26;100471.63;4470198;32;32600;-71
2023/09/05 00:02:50;;;;;;;5.18;2.62;;;;;;;25.87;36.37;100469.91;4482328;32;33721;-70
2023/09/05 00:05:19;;;;;;;5.90;2.83;;;;;;;25.87;36.36;100466.34;4463949;32;33306;-67
2023/09/05 00:07:47;;;;;;;6.62;2.60;;;;;;;25.86;36.42;100470.16;4484325;31;34334;-72
2023/09/05 00:10:15;;;;;;;3.80;2.08;;;;;;;25.87;36.48;100466.34;4482673;32;33347;-73
2023/09/05 00:12:43;;;;;;;3.90;2.20;;;;;;;25.87;36.48;100469.91;4459449;32;33567;-70
2023/09/05 00:15:13;;;;;;;4.80;2.50;;;;;;;25.86;36.54;100471.00;4469145;32;35349;-73
2023/09/05 00:17:42;;;;;;;5.85;2.62;;;;;;;25.86;36.59;100461.97;4481151;32;34261;-72
2023/09/05 00:20:11;;;;;;;4.40;2.40;;;;;;;25.86;36.42;100461.97;4468888;32;33208;-70
2023/09/05 00:22:39;;;;;;;6.95;2.78;;;;;;;25.87;36.42;100455.41;4466791;32;33981;-69
2023/09/05 00:25:07;;;;;;;4.05;2.50;;;;;;;25.87;36.53;100452.69;4466457;32;33683;-73
2023/09/05 00:27:35;;;;;;;4.72;3.05;;;;;;;25.84;36.49;100445.78;4467547;32;34006;-72
2023/09/05 00:30:03;;;;;;;4.18;2.37;;;;;;;25.84;36.50;100444.97;4466227;32;33589;-74
2023/09/05 00:32:32;;;;;;;4.25;2.40;;;;;;;25.84;36.54;100447.69;4496520;31;33869;-68
2023/09/05 00:35:00;;;;;;;4.62;2.72;;;;;;;25.82;36.66;100442.44;4500539;31;34597;-70
2023/09/05 00:37:30;;;;;;;4.90;2.50;;;;;;;25.83;36.68;100440.53;4483470;31;33798;-66
2023/09/05 00:39:57;;;;;;;4.35;2.70;;;;;;;25.82;36.51;100438.88;4469443;32;34146;-69
2023/09/05 00:42:25;;;;;;;5.22;2.50;;;;;;;25.82;36.45;100436.13;4469467;32;34676;-70
2023/09/05 00:44:53;;;;;;;7.03;2.50;;;;;;;25.81;36.45;100438.03;4468252;32;33599;-67
2023/09/05 00:47:22;;;;;;;4.30;2.60;;;;;;;25.80;36.52;100433.63;4455168;32;32600;-67
2023/09/05 00:49:50;;;;;;;5.05;2.80;;;;;;;25.81;36.53;100431.72;4468096;32;34192;-68
2023/09/05 00:52:18;;;;;;;6.18;2.70;;;;;;;25.79;36.54;100429.25;4468132;32;34030;-71
2023/09/05 00:54:46;;;;;;;6.50;2.60;;;;;;;25.79;36.43;100421.03;4474503;32;34840;-69
2023/09/05 00:57:17;;;;;;;6.22;2.92;;;;;;;25.78;36.49;100422.06;4463245;32;33413;-68
2023/09/05 00:59:46;;;;;;;5.22;2.78;;;;;;;25.77;36.45;100420.41;4495853;31;33349;-70
2023/09/05 01:02:14;;;;;;;4.43;2.22;;;;;;;25.77;36.46;100420.41;4492908;31;33929;-69
2023/09/05 01:04:43;;;;;;;4.87;2.70;;;;;;;25.77;36.61;100419.56;4469166;32;33844;-68
2023/09/05 01:07:32;;;;;;;4.82;2.50;;;;;;;25.77;36.66;100414.94;4468390;32;34021;-68
2023/09/05 01:10:11;;;;;;;4.15;2.60;;;;;;;25.78;36.58;100418.50;4467790;32;33174;-72
2023/09/05 01:12:39;;;;;;;6.20;3.08;;;;;;;25.77;36.65;100408.66;4476943;32;34004;-73
2023/09/05 01:15:08;;;;;;;4.75;2.97;;;;;;;25.77;36.44;100411.38;4484879;32;33900;-73
2023/09/05 01:17:36;;;;;;;5.43;2.50;;;;;;;25.77;36.53;100411.38;4470887;32;34458;-70
2023/09/05 01:20:06;;;;;;;4.95;2.80;;;;;;;25.75;36.51;100403.37;4470923;32;33553;-73
2023/09/05 01:22:47;;;;;;;5.72;2.80;;;;;;;25.75;36.46;100405.28;4470748;32;33688;-68
2023/09/05 01:25:15;;;;;;;5.03;2.35;;;;;;;25.75;36.58;100406.13;4485023;32;33492;-70
2023/09/05 01:27:43;;;;;;;6.10;2.60;;;;;;;25.73;36.57;100408.22;4470474;32;33970;-71
2023/09/05 01:30:11;;;;;;;4.78;2.90;;;;;;;25.73;36.47;100412.84;4483075;32;33606;-69
2023/09/05 01:32:39;;;;;;;6.35;2.87;;;;;;;25.73;36.64;100412.84;4458053;32;32872;-72
2023/09/05 01:35:08;;;;;;;4.68;2.70;;;;;;;25.73;36.55;100418.31;4485002;32;34103;-69
2023/09/05 01:37:35;;;;;;;6.30;2.90;;;;;;;25.72;36.48;100425.69;4483658;32;33477;-72
2023/09/05 01:40:04;;;;;;;4.47;2.67;;;;;;;25.70;36.67;100414.16;4484763;32;32966;-70
2023/09/05 01:42:32;;;;;;;5.25;3.00;;;;;;;25.69;36.67;100413.34;4484438;32;33757;-69
2023/09/05 01:44:59;;;;;;;4.25;2.65;;;;;;;25.69;36.44;100418.81;4484042;32;33798;-70
2023/09/05 01:47:27;;;;;;;4.97;2.60;;;;;;;25.70;36.54;100419.63;4483572;32;33825;-70
2023/09/05 01:49:55;;;;;;;4.55;2.75;;;;;;;25.69;36.68;100418.81;4484455;32;34172;-72
2023/09/05 01:52:23;;;;;;;5.32;2.65;;;;;;;25.69;36.79;100417.94;4483423;32;33835;-71
2023/09/05 01:54:52;;;;;;;5.45;2.90;;;;;;;25.69;36.69;100413.34;4483329;32;33460;-71
2023/09/05 01:57:20;;;;;;;5.30;2.85;;;;;;;25.68;36.56;100413.53;4484492;32;33699;-68
2023/09/05 01:59:47;;;;;;;5.05;2.58;;;;;;;25.68;36.64;100410.81;4483455;32;33427;-73
2023/09/05 02:02:16;;;;;;;4.62;2.87;;;;;;;25.66;36.71;100400.09;4484161;32;34108;-70
2023/09/05 02:04:45;;;;;;;4.50;2.80;;;;;;;25.68;36.52;100397.97;4468797;32;33921;-70
2023/09/05 02:07:12;;;;;;;4.95;2.50;;;;;;;25.66;36.57;100397.38;4468847;32;34670;-73
2023/09/05 02:09:40;;;;;;;8.27;2.70;;;;;;;25.66;36.63;100397.38;4467584;32;33757;-74
2023/09/05 02:12:08;;;;;;;4.40;2.80;;;;;;;25.66;36.49;100396.53;4468767;32;33241;-71
2023/09/05 02:14:36;;;;;;;5.22;2.80;;;;;;;25.66;36.55;100399.28;4469186;32;33619;-71
2023/09/05 02:17:04;;;;;;;4.30;2.70;;;;;;;25.66;36.58;100402.00;4468834;32;34796;-72
2023/09/05 02:19:32;;;;;;;4.57;2.25;;;;;;;25.65;36.55;100398.44;4467790;32;33369;-69
2023/09/05 02:22:02;;;;;;;4.20;2.30;;;;;;;25.65;36.58;100406.66;4467538;32;34336;-70
2023/09/05 02:24:30;;;;;;;4.70;2.87;;;;;;;25.65;36.63;100405.81;4468827;32;34655;-71
2023/09/05 02:26:58;;;;;;;4.22;2.37;;;;;;;25.66;36.61;100407.47;4468634;32;33756;-72
2023/09/05 02:29:27;;;;;;;4.68;2.90;;;;;;;25.65;36.60;100400.34;4467491;32;34251;-72
2023/09/05 02:31:54;;;;;;;4.53;2.62;;;;;;;25.64;36.61;100402.22;4467783;32;32778;-71
2023/09/05 02:34:22;;;;;;;6.62;2.62;;;;;;;25.64;36.49;100407.69;4454587;32;34216;-74
2023/09/05 02:36:54;;;;;;;4.50;2.60;;;;;;;25.65;36.48;100409.38;4467926;32;33830;-70
2023/09/05 02:39:22;;;;;;;11.02;3.00;;;;;;;25.64;36.50;100409.59;4468581;32;33451;-69
2023/09/05 02:41:50;;;;;;;4.47;2.35;;;;;;;25.64;36.61;100410.41;4468917;32;33964;-72
2023/09/05 02:44:17;;;;;;;4.80;2.75;;;;;;;25.65;36.60;100411.28;4467456;32;33778;-69
2023/09/05 02:46:45;;;;;;;5.75;2.80;;;;;;;25.63;36.62;100410.66;4452928;32;34009;-70
2023/09/05 02:49:13;;;;;;;6.53;3.03;;;;;;;25.62;36.77;100415.28;4484406;32;32907;-70
2023/09/05 02:51:41;;;;;;;4.50;2.55;;;;;;;25.63;36.70;100411.47;4483135;32;33569;-70
2023/09/05 02:54:08;;;;;;;5.97;3.08;;;;;;;25.62;36.62;100409.81;4483486;32;34635;-67
2023/09/05 02:56:37;;;;;;;4.20;2.62;;;;;;;25.63;36.63;100416.94;4483822;32;34786;-74
2023/09/05 02:59:05;;;;;;;7.47;2.60;;;;;;;25.63;36.75;100413.37;4484263;32;33594;-68
2023/09/05 03:01:32;;;;;;;4.50;2.60;;;;;;;25.64;36.70;100417.78;4482688;32;33015;-72
2023/09/05 03:04:00;;;;;;;5.85;2.95;;;;;;;25.62;36.67;100415.28;4484169;32;33347;-67
2023/09/05 03:06:28;;;;;;;6.25;2.78;;;;;;;25.61;36.69;100421.81;4484382;32;34149;-73
2023/09/05 03:08:56;;;;;;;4.50;2.87;;;;;;;25.63;36.71;100418.84;4484118;32;34197;-68
2023/09/05 03:11:24;;;;;;;6.40;2.85;;;;;;;25.62;36.77;100420.75;4483757;32;34690;-73
2023/09/05 03:13:52;;;;;;;7.25;2.67;;;;;;;25.64;36.79;100426.81;4483173;32;33509;-74
2023/09/05 03:16:23;;;;;;;5.55;3.10;;;;;;;25.64;36.72;100425.97;4482819;32;33907;-73
2023/09/05 03:18:51;;;;;;;5.57;2.85;;;;;;;25.63;36.67;100422.41;4482995;32;34159;-68
2023/09/05 03:21:20;;;;;;;5.47;2.85;;;;;;;25.63;36.72;100425.16;4483730;32;34631;-73
2023/09/05 03:23:47;;;;;;;4.47;2.83;;;;;;;25.63;36.67;100425.16;4484007;32;33639;-72
2023/09/05 03:26:15;;;;;;;4.53;2.80;;;;;;;25.63;36.67;100430.63;4469938;32;32938;-71
2023/09/05 03:28:43;;;;;;;4.68;2.50;;;;;;;25.62;36.67;100431.69;4474464;32;32600;-71
2023/09/05 03:31:11;;;;;;;4.72;2.75;;;;;;;25.63;36.75;100432.50;4467160;32;33621;-70
2023/09/05 03:33:39;;;;;;;3.95;2.50;;;;;;;25.61;36.86;100438.22;4467058;32;34786;-70
2023/09/05 03:36:09;;;;;;;6.57;2.80;;;;;;;25.61;36.79;100440.94;4454087;32;33724;-72
2023/09/05 03:38:37;;;;;;;5.60;2.83;;;;;;;25.61;36.80;100445.59;4468489;32;33776;-71
2023/09/05 03:41:05;;;;;;;4.85;2.85;;;;;;;25.62;36.79;100447.25;4468271;32;33632;-68
2023/09/05 03:43:33;;;;;;;5.20;2.47;;;;;;;25.61;36.75;100446.41;4441227;32;33994;-74
2023/09/05 03:46:00;;;;;;;4.85;2.92;;;;;;;25.62;36.93;100455.44;4474004;32;34210;-69
2023/09/05 03:48:28;;;;;;;4.10;2.65;;;;;;;25.61;36.83;100448.31;4482365;32;33592;-70
2023/09/05 03:50:56;;;;;;;4.47;2.47;;;;;;;25.61;36.79;100453.78;4483673;32;35389;-72
2023/09/05 03:53:23;;;;;;;5.85;3.10;;;;;;;25.60;36.84;100450.22;4482576;32;33762;-71
2023/09/05 03:55:52;;;;;;;4.72;2.40;;;;;;;25.60;36.90;100457.56;4483736;32;33815;-72
2023/09/05 03:58:20;;;;;;;5.30;2.80;;;;;;;25.60;37.01;100454.81;4483920;32;33476;-73
2023/09/05 04:00:47;;;;;;;6.10;2.97;;;;;;;25.60;36.87;100457.56;4483968;32;33537;-69
2023/09/05 04:03:16;;;;;;;7.12;3.03;;;;;;;25.60;36.85;100463.03;4483147;32;33924;-73
2023/09/05 04:05:44;;;;;;;5.40;2.67;;;;;;;25.59;36.86;100455.88;4469497;32;33904;-68
2023/09/05 04:08:12;;;;;;;4.60;2.85;;;;;;;25.59;36.87;100458.63;4481641;32;34068;-73
2023/09/05 04:10:40;;;;;;;4.25;2.58;;;;;;;25.59;36.91;100458.63;4469520;32;33974;-69
2023/09/05 04:13:08;;;;;;;5.65;3.12;;;;;;;25.60;36.94;100465.75;4482182;32;33517;-74
2023/09/05 04:15:36;;;;;;;5.82;3.00;;;;;;;25.59;36.93;100477.75;4483524;32;33492;-68
2023/09/05 04:18:04;;;;;;;3.78;2.37;;;;;;;25.59;36.85;100472.28;4482324;32;34123;-72
2023/09/05 04:20:32;;;;;;;5.57;2.60;;;;;;;25.58;36.87;100468.72;4481461;32;33901;-68
2023/09/05 04:23:00;;;;;;;4.82;2.72;;;;;;;25.59;36.84;100472.28;4456218;32;33871;-74
2023/09/05 04:25:29;;;;;;;4.93;2.77;;;;;;;25.58;37.02;100465.97;4483332;32;34529;-72
2023/09/05 04:27:57;;;;;;;12.68;2.97;;;;;;;25.58;36.91;100474.19;4483140;32;32989;-71
2023/09/05 04:30:43;;;;;;;6.18;2.53;;;;;;;25.59;36.93;100461.34;4483467;32;33859;-72
2023/09/05 04:33:11;;;;;;;4.97;2.87;;;;;;;25.60;36.97;100469.34;4483091;32;33928;-72
2023/09/05 04:35:39;;;;;;;4.95;2.55;;;;;;;25.58;36.93;100471.44;4482382;32;34069;-68
2023/09/05 04:38:06;;;;;;;4.03;2.33;;;;;;;25.57;36.92;100475.25;4483283;32;34320;-73
2023/09/05 04:40:35;;;;;;;4.78;2.65;;;;;;;25.57;37.03;100472.50;4482916;32;34782;-67
2023/09/05 04:43:03;;;;;;;4.60;2.87;;;;;;;25.58;36.90;100476.91;4481747;32;34017;-70
2023/09/05 04:45:31;;;;;;;4.47;2.40;;;;;;;25.56;37.00;100473.59;4481719;32;34662;-70
2023/09/05 04:47:59;;;;;;;7.03;3.00;;;;;;;25.58;37.05;100476.91;4482800;32;33269;-73
2023/09/05 04:50:26;;;;;;;4.68;2.60;;;;;;;25.57;37.02;100474.41;4482945;32;33851;-73
2023/09/05 04:52:54;;;;;;;5.22;2.70;;;;;;;25.55;37.09;100471.88;4482335;32;33989;-71
2023/09/05 04:55:22;;;;;;;6.43;2.75;;;;;;;25.56;37.11;100473.59;4481559;32;33866;-68
2023/09/05 04:57:50;;;;;;;5.65;2.78;;;;;;;25.57;37.12;100483.44;4455784;32;32415;-72
2023/09/05 05:00:18;;;;;;;6.15;2.60;;;;;;;25.56;37.19;100487.25;4482671;32;34278;-69
2023/09/05 05:02:46;;;;;;;6.05;3.00;;;;;;;25.57;37.30;100483.44;4481549;32;34125;-71
2023/09/05 05:05:14;;;;;;;5.62;2.80;;;;;;;25.56;37.30;100489.97;4482879;32;33740;-67
2023/09/05 05:07:41;;;;;;;5.12;2.55;;;;;;;25.56;37.21;100495.44;4481555;32;33300;-70
2023/09/05 05:10:10;;;;;;;7.50;3.00;;;;;;;25.56;37.14;100500.91;4480769;32;33678;-68
2023/09/05 05:12:37;;;;;;;5.05;3.03;;;;;;;25.56;37.23;100498.19;4481587;32;34698;-73
2023/09/05 05:15:05;;;;;;;4.72;2.60;;;;;;;25.57;37.34;100488.91;4482886;32;34637;-75
2023/09/05 05:17:37;;;;;;;5.12;2.80;;;;;;;25.56;37.34;100500.09;4481569;32;33389;-75
2023/09/05 05:20:27;;;;;;;5.97;2.62;;;;;;;25.55;37.44;100499.22;4472206;32;33350;-75
2023/09/05 05:22:55;;;;;;;6.45;2.90;;;;;;;25.57;37.43;100490.81;4484863;32;34362;-68
2023/09/05 05:25:23;;;;;;;4.35;2.58;;;;;;;25.56;37.36;100498.19;4484910;32;34836;-75
2023/09/05 05:27:50;;;;;;;6.00;3.00;;;;;;;25.54;37.46;100497.53;4483985;32;33538;-69
2023/09/05 05:30:18;;;;;;;4.87;2.65;;;;;;;25.55;37.56;100499.22;4484967;32;33135;-73
2023/09/05 05:32:49;;;;;;;8.30;3.10;;;;;;;25.56;37.58;100500.91;4484139;32;34011;-74
2023/09/05 05:35:17;;;;;;;4.78;2.87;;;;;;;25.55;37.50;100503.84;4483352;32;33198;-74
2023/09/05 05:37:45;;;;;;;8.30;3.15;;;;;;;25.56;37.58;100491.88;4484817;32;33382;-73
2023/09/05 05:40:13;;;;;;;5.45;2.92;;;;;;;25.55;37.49;100499.22;4477672;32;34508;-71
2023/09/05 05:42:41;;;;;;;5.05;2.40;;;;;;;25.55;37.56;100493.75;4470588;32;33873;-70
2023/09/05 05:45:10;;;;;;;5.30;3.28;;;;;;;25.56;37.60;100489.16;4472439;32;33950;-70
2023/09/05 05:47:37;;;;;;;5.03;2.50;;;;;;;25.55;37.55;100501.13;4484605;32;33418;-70
2023/09/05 05:50:06;;;;;;;5.68;3.22;;;;;;;25.54;37.70;100500.28;4483391;32;34446;-70
2023/09/05 05:52:34;;;;;;;5.12;2.75;;;;;;;25.55;37.67;100498.37;4484636;32;34661;-67
2023/09/05 05:55:02;;;;;;;4.97;2.92;;;;;;;25.56;37.68;100508.28;4483445;32;34687;-67
2023/09/05 05:57:29;;;;;;;7.40;2.70;;;;;;;25.55;37.71;100499.22;4463382;32;31916;-67
2023/09/05 05:59:57;;;;;;;8.40;3.17;;;;;;;25.55;37.71;100496.47;4468928;32;33854;-66
2023/09/05 06:02:25;;;;;;;5.32;2.90;;;;;;;25.55;37.80;100499.22;4469160;32;34812;-66
2023/09/05 06:04:54;;;;;;;5.70;3.15;;;;;;;25.54;37.83;100502.19;4467901;32;33212;-66
2023/09/05 06:07:21;;;;;;;5.28;3.03;;;;;;;25.56;37.82;100498.19;4469063;32;33093;-65
2023/09/05 06:09:49;;;;;;;6.03;2.72;;;;;;;25.55;37.80;100492.91;4467519;32;33203;-67
2023/09/05 06:12:17;;;;;;;5.05;3.10;;;;;;;25.54;37.86;100497.53;4469090;32;34267;-71
2023/09/05 06:14:45;;;;;;;5.90;3.03;;;;;;;25.54;37.89;100496.72;4468786;32;34767;-68
2023/09/05 06:17:13;;;;;;;6.55;2.90;;;;;;;25.53;37.81;100487.69;4468724;32;34260;-69
2023/09/05 06:19:41;;;;;;;4.82;2.92;;;;;;;25.53;37.89;100487.69;4493274;31;33655;-66
2023/09/05 06:22:09;;;;;;;5.32;2.72;;;;;;;25.53;37.72;100493.16;4467616;32;33781;-66
2023/09/05 06:24:37;;;;;;;7.15;3.17;;;;;;;25.53;37.65;100493.16;4468681;32;34266;-71
2023/09/05 06:27:05;;;;;;;5.47;3.22;;;;;;;25.52;37.56;100490.66;4467405;32;34161;-70
2023/09/05 06:29:32;;;;;;;7.50;3.12;;;;;;;25.52;37.63;100490.66;4468811;32;34551;-66
2023/09/05 06:32:00;;;;;;;6.43;2.92;;;;;;;25.52;37.63;100494.22;4468008;32;33649;-66
2023/09/05 06:34:28;;;;;;;6.35;2.70;;;;;;;25.51;37.63;100489.81;4477791;32;34578;-65
2023/09/05 06:36:55;;;;;;;7.75;2.90;;;;;;;25.52;37.73;100502.41;4484350;32;33356;-66
2023/09/05 06:39:23;;;;;;;5.50;2.78;;;;;;;25.53;37.69;100500.50;4482724;32;33281;-66
2023/09/05 06:41:51;;;;;;;7.22;2.90;;;;;;;25.53;37.66;100500.50;4483146;32;33894;-65
2023/09/05 06:44:23;;;;;;;6.97;3.30;;;;;;;25.52;37.69;100496.94;4484527;32;33945;-67
2023/09/05 06:46:52;;;;;;;5.55;2.70;;;;;;;25.52;37.64;100498.84;4484084;32;33487;-68
2023/09/05 06:49:20;;;;;;;6.78;3.17;;;;;;;25.53;37.60;100492.31;4470138;32;32951;-67
2023/09/05 06:51:47;;;;;;;5.78;3.12;;;;;;;25.53;37.59;100500.50;4482155;32;34683;-67
2023/09/05 06:54:16;;;;;;;6.28;2.83;;;;;;;25.52;37.50;100496.12;4483009;32;33844;-70
2023/09/05 06:56:43;;;;;;;5.32;3.15;;;;;;;25.51;37.49;100497.16;4484611;32;33306;-68
2023/09/05 06:59:17;;;;;;;7.05;3.10;;;;;;;25.51;37.47;100495.28;4483071;32;34767;-67
2023/09/05 07:01:45;;;;;;;6.25;3.37;;;;;;;25.50;37.46;100498.22;4484266;32;33843;-69
2023/09/05 07:04:15;;;;;;;6.25;2.92;;;;;;;25.51;37.37;100502.63;4469980;32;34098;-69
2023/09/05 07:06:45;;;;;;;4.93;3.00;;;;;;;25.51;37.39;100497.16;4466823;32;33771;-67
2023/09/05 07:09:14;;;;;;;6.10;3.12;;;;;;;25.50;37.47;100496.31;4467352;32;33901;-71
2023/09/05 07:11:42;;;;;;;6.70;2.97;;;;;;;25.51;37.40;100503.47;4454694;32;34658;-72
2023/09/05 07:14:10;;;;;;;4.75;2.90;;;;;;;25.52;37.46;100504.31;4468403;32;33820;-72
2023/09/05 07:16:38;;;;;;;7.40;3.08;;;;;;;25.52;37.29;100501.59;4467229;32;32410;-72
2023/09/05 07:19:06;;;;;;;8.32;3.67;;;;;;;25.51;37.19;100502.63;4468433;32;35141;-71
2023/09/05 07:21:33;;;;;;;5.72;2.70;;;;;;;25.51;37.11;100502.63;4468385;32;33503;-73
2023/09/05 07:24:01;;;;;;;6.78;3.20;;;;;;;25.50;37.06;100504.53;4468373;32;33732;-71
2023/09/05 07:26:28;;;;;;;6.05;3.30;;;;;;;25.49;37.14;100502.84;4468504;32;33334;-69
2023/09/05 07:28:56;;;;;;;5.20;3.25;;;;;;;25.48;37.12;100503.91;4468235;32;34643;-67
2023/09/05 07:31:30;;;;;;;5.50;3.00;;;;;;;25.48;37.20;100503.09;4468483;32;34682;-70
2023/09/05 07:33:58;;;;;;;4.87;2.75;;;;;;;25.48;37.23;100512.13;4470756;32;33561;-69
2023/09/05 07:36:27;;;;;;;5.82;3.03;;;;;;;25.48;37.23;100498.44;4480557;32;33175;-71
2023/09/05 07:38:55;;;;;;;5.18;2.83;;;;;;;25.49;37.30;100504.75;4469356;32;33939;-68
2023/09/05 07:41:22;;;;;;;5.95;3.12;;;;;;;25.49;37.34;100518.41;4483903;32;33898;-67
2023/09/05 07:43:51;;;;;;;6.00;3.00;;;;;;;25.48;37.27;100512.13;4482459;32;34690;-73
2023/09/05 07:46:18;;;;;;;5.95;3.03;;;;;;;25.49;37.15;100516.50;4483694;32;33645;-69
2023/09/05 07:48:47;;;;;;;4.70;2.92;;;;;;;25.48;37.22;100509.38;4481862;32;33778;-68
2023/09/05 07:51:15;;;;;;;7.75;3.35;;;;;;;25.48;37.19;100512.13;4481156;32;33751;-70
2023/09/05 07:53:49;;;;;;;7.72;3.40;;;;;;;25.49;37.34;100511.06;4481529;32;33091;-71
2023/09/05 07:56:17;;;;;;;5.40;3.37;;;;;;;25.50;37.20;100518.19;4483079;32;33181;-71
2023/09/05 07:58:45;;;;;;;5.90;3.33;;;;;;;25.50;37.28;100526.38;4483473;32;33569;-68
2023/09/05 08:01:12;;;;;;;5.70;2.95;;;;;;;25.52;37.35;100515.25;4483672;32;33601;-70
2023/09/05 08:03:41;;;;;;;6.93;2.90;;;;;;;25.50;37.41;100520.91;4483570;32;34559;-69
2023/09/05 08:06:08;;;;;;;6.68;3.65;;;;;;;25.52;37.49;100517.97;4483789;32;33312;-70
2023/09/05 08:08:36;;;;;;;5.35;2.95;;;;;;;25.54;37.47;100521.31;4482442;32;33935;-72
2023/09/05 08:11:04;;;;;;;5.68;3.20;;;;;;;25.54;37.42;100524.03;4483507;32;34084;-70
2023/09/05 08:13:31;;;;;;;6.78;3.20;;;;;;;25.54;37.26;100522.13;4483836;32;33639;-74
2023/09/05 08:16:00;;;;;;;5.72;3.10;;;;;;;25.55;37.20;100521.06;4469483;32;33205;-68
2023/09/05 08:18:28;;;;;;;5.35;3.35;;;;;;;25.57;37.20;100527.16;4483263;32;33824;-72
2023/09/05 08:20:59;;;;;;;5.43;2.90;;;;;;;25.57;37.20;100515.41;4482199;32;34651;-68
2023/09/05 08:23:27;;;;;;;6.75;2.95;;;;;;;25.59;37.26;100513.28;4483367;32;35183;-70
2023/09/05 08:25:57;;;;;;;7.00;3.35;;;;;;;25.60;37.24;100515.81;4483261;32;33950;-66
2023/09/05 08:28:32;;;;;;;7.15;3.25;;;;;;;25.59;37.18;100511.37;4483400;32;34578;-67
2023/09/05 08:31:00;;;;;;;6.78;3.22;;;;;;;25.61;37.23;100512.00;4482050;32;33886;-66
2023/09/05 08:33:31;;;;;;;8.63;3.50;;;;;;;25.61;37.35;100503.81;4482087;32;34734;-67
2023/09/05 08:35:58;;;;;;;7.30;3.72;;;;;;;25.62;37.40;100521.03;4483350;32;34075;-67
2023/09/05 08:38:27;;;;;;;4.70;3.03;;;;;;;25.62;37.27;100508.19;4482114;32;33907;-67
2023/09/05 08:41:00;;;;;;;6.03;3.47;;;;;;;25.62;37.21;100505.47;4481970;32;34107;-67
2023/09/05 08:43:28;;;;;;;5.30;3.15;;;;;;;25.62;37.19;100500.00;4481817;32;33673;-66
2023/09/05 08:45:55;;;;;;;5.45;3.30;;;;;;;25.63;37.02;100496.22;4475556;32;33538;-70
2023/09/05 08:48:23;;;;;;;5.05;3.10;;;;;;;25.66;36.82;100500.41;4466102;32;34629;-67
2023/09/05 08:50:56;;;;;;;5.28;3.00;;;;;;;25.65;36.85;100499.56;4453662;32;33968;-67
2023/09/05 08:53:30;;;;;;;6.40;3.75;;;;;;;25.66;36.84;100503.12;4453367;32;33521;-68
2023/09/05 08:55:58;;;;;;;6.30;3.15;;;;;;;25.65;36.87;100493.28;4467660;32;33479;-66
2023/09/05 08:58:26;;;;;;;8.40;3.00;;;;;;;25.65;36.90;100502.31;4455296;32;32963;-65
2023/09/05 09:00:54;;;;;;;6.75;3.28;;;;;;;25.67;37.04;100497.44;4468484;32;33974;-66
2023/09/05 09:03:22;;;;;;;6.95;3.33;;;;;;;25.67;37.06;100491.97;4477875;32;33892;-67
2023/09/05 09:05:50;;;;;;;6.22;3.42;;;;;;;25.67;37.04;100488.41;4483735;32;33440;-69
2023/09/05 09:08:18;;;;;;;6.85;3.40;;;;;;;25.68;37.05;100481.88;4484313;32;34628;-66
2023/09/05 09:11:04;;;;;;;4.78;2.85;;;;;;;25.68;37.15;100487.34;4484547;32;34002;-66
2023/09/05 09:13:32;;;;;;;4.95;2.90;;;;;;;25.71;37.19;100486.91;4470981;32;34524;-71
2023/09/05 09:16:00;;;;;;;7.62;3.12;;;;;;;25.69;37.25;100472.59;4485065;32;33404;-71
2023/09/05 09:18:31;;;;;;;6.30;3.30;;;;;;;25.69;37.35;100469.88;4483583;32;33822;-68
2023/09/05 09:21:05;;;;;;;6.00;3.03;;;;;;;25.69;37.42;100470.72;4465193;32;34723;-68
2023/09/05 09:23:36;;;;;;;6.90;3.60;;;;;;;25.71;37.52;100473.22;4472681;32;33566;-68
2023/09/05 09:26:04;;;;;;;6.65;3.05;;;;;;;25.70;37.59;100469.66;4455501;32;33799;-69
2023/09/05 09:28:32;;;;;;;6.07;3.15;;;;;;;25.70;37.68;100475.13;4469163;32;34680;-68
2023/09/05 09:31:02;;;;;;;5.85;3.25;;;;;;;25.70;37.74;100472.41;4468069;32;34072;-68
2023/09/05 09:33:31;;;;;;;6.97;3.28;;;;;;;25.73;37.79;100467.53;4474944;32;33970;-69
2023/09/05 09:36:04;;;;;;;5.28;3.37;;;;;;;25.74;37.82;100452.78;4483364;32;33579;-67
2023/09/05 09:38:32;;;;;;;6.03;3.00;;;;;;;25.75;37.84;100462.69;4470893;32;33519;-69
2023/09/05 09:41:01;;;;;;;6.80;2.90;;;;;;;25.74;37.89;100459.12;4483767;32;33982;-67
2023/09/05 09:43:30;;;;;;;7.10;3.60;;;;;;;25.74;37.94;100455.53;4476693;31;34547;-71
2023/09/05 09:45:59;;;;;;;6.22;3.40;;;;;;;25.75;37.97;100451.75;4470837;32;32534;-73
2023/09/05 09:48:29;;;;;;;6.50;3.42;;;;;;;25.76;38.01;100451.53;4483278;32;33860;-68
2023/09/05 09:50:57;;;;;;;;;;;;;;;25.75;38.00;100449.03;4483651;32;33937;-67
2023/09/05 09:53:29;;;;;;;5.30;2.97;;;;;;;25.85;37.85;100450.19;4477745;32;34202;-74
2023/09/05 09:55:57;;;;;;;9.25;3.25;;;;;;;25.77;38.00;100450.47;4467808;32;34130;-69
2023/09/05 09:58:25;;;;;;;7.28;3.22;;;;;;;25.76;38.06;100465.22;4467492;32;34679;-73
2023/09/05 10:00:55;;;;;;;6.22;3.12;;;;;;;25.76;38.09;100458.91;4455088;32;33879;-69
2023/09/05 10:03:24;;;;;;;5.45;2.92;;;;;;;25.76;38.12;100451.53;4479492;31;34564;-69
2023/09/05 10:05:53;;;;;;;5.65;3.03;;;;;;;25.77;38.14;100452.38;4485902;31;34034;-67
2023/09/05 10:08:21;;;;;;;5.57;3.10;;;;;;;25.78;38.12;100449.41;4498852;31;33457;-68
2023/09/05 10:10:51;;;;;;;6.47;3.08;;;;;;;25.78;38.15;100443.94;4473602;31;33998;-67
2023/09/05 10:13:21;;;;;;;5.85;3.22;;;;;;;25.78;38.14;100445.84;4496995;31;33778;-73
2023/09/05 10:15:49;;;;;;;4.97;2.70;;;;;;;25.78;38.13;100441.22;4498781;31;33402;-70
2023/09/05 10:18:16;;;;;;;4.70;2.97;;;;;;;25.79;38.14;100448.38;4486130;31;33810;-68
2023/09/05 10:20:44;;;;;;;5.18;3.17;;;;;;;25.79;38.15;100440.16;4499049;31;34405;-68
2023/09/05 10:23:12;;;;;;;5.00;3.10;;;;;;;25.78;38.16;100438.47;4472496;32;33805;-71
2023/09/05 10:25:40;;;;;;;5.18;3.03;;;;;;;25.80;38.17;100439.09;4454386;32;33640;-68
2023/09/05 10:28:07;;;;;;;4.15;2.50;;;;;;;25.80;38.17;100433.63;4455012;32;33845;-67
2023/09/05 10:30:46;;;;;;;3.65;2.55;;;;;;;25.81;38.17;100423.53;4454832;32;33947;-71
2023/09/05 10:33:13;;;;;;;5.37;3.12;;;;;;;25.82;38.19;100428.75;4482069;31;35057;-67
2023/09/05 10:35:44;;;;;;;4.68;2.97;;;;;;;25.81;38.19;100427.09;4499007;31;33380;-67
2023/09/05 10:38:15;;;;;;;5.12;2.83;;;;;;;25.81;38.22;100423.53;4500168;31;33554;-69
2023/09/05 10:40:43;;;;;;;5.25;3.03;;;;;;;25.82;38.21;100417.00;4499011;31;33096;-70
2023/09/05 10:43:15;;;;;;;5.05;2.80;;;;;;;25.82;38.22;100411.53;4486280;31;33805;-69
2023/09/05 10:45:43;;;;;;;4.75;2.83;;;;;;;25.83;38.25;100419.50;4467391;31;32933;-68
2023/09/05 10:48:17;;;;;;;6.50;3.05;;;;;;;25.83;38.24;100411.28;4468618;32;33239;-68
2023/09/05 10:51:08;;;;;;;7.18;2.70;;;;;;;25.82;38.28;100415.09;4467601;32;33819;-69
2023/09/05 10:53:39;;;;;;;4.43;2.67;;;;;;;25.85;38.24;100402.87;4486123;31;34260;-68
2023/09/05 10:56:41;;;;;;;6.22;3.05;;;;;;;25.83;38.29;100399.53;4486269;31;33472;-69
2023/09/05 10:59:26;;;;;;;8.10;3.40;;;;;;;25.84;38.28;100395.75;4468796;32;33904;-69
2023/09/05 11:02:00;;;;;;;5.72;3.20;;;;;;;25.85;38.30;100403.72;4468606;32;34380;-69
2023/09/05 11:04:30;;;;;;;5.50;3.15;;;;;;;25.83;38.32;100408.56;4468496;32;33921;-70
2023/09/05 11:06:59;;;;;;;6.97;3.00;;;;;;;25.83;38.35;100405.81;4469263;31;34327;-66
2023/09/05 11:09:27;;;;;;;4.70;3.03;;;;;;;25.84;38.35;100399.31;4467469;32;33983;-73
2023/09/05 11:11:55;;;;;;;5.20;3.00;;;;;;;25.84;38.38;100406.69;4467173;32;34348;-68
2023/09/05 11:14:33;;;;;;;4.93;2.87;;;;;;;25.84;38.37;100395.75;4467269;32;33895;-71
2023/09/05 11:17:01;;;;;;;4.80;2.97;;;;;;;25.85;38.37;100387.31;4475215;31;33777;-70
2023/09/05 11:19:43;;;;;;;4.65;2.92;;;;;;;25.86;38.37;100399.06;4498293;31;34694;-67
2023/09/05 11:22:19;;;;;;;6.15;3.17;;;;;;;25.86;38.37;100388.12;4498592;31;33984;-70
2023/09/05 11:24:56;;;;;;;5.00;3.03;;;;;;;25.86;38.34;100390.88;4499730;31;33875;-72
2023/09/05 11:27:29;;;;;;;4.82;2.95;;;;;;;25.86;38.34;100396.34;4473060;31;33434;-68
2023/09/05 11:30:02;;;;;;;5.43;3.45;;;;;;;25.85;38.35;100390.03;4467168;32;33670;-68
2023/09/05 11:32:31;;;;;;;6.20;2.85;;;;;;;25.86;38.36;100391.72;4467098;32;34021;-71